EGMD

Lydd Airport

Lydd, Ashford, United Kingdom
METAR EGMD 221720Z 07010KT CAVOK 18/13 Q1016
Observed Flight Rules
May-22 @ 17:20 UTC (31 minutes ago) Visual Flight Rules
Wind Visibility Clouds
70° at 10 knots 10,000+ meters
  • Clear skies
Temperatures Readings
Current 18°C / 64°F
Dewpoint 13°C / 55°F
Humidity 73%
Altimeter 30" Hg
Pressure 1016 hPa
Elevation 3
METAR EGMD 221720Z 07010KT CAVOK 18/13 Q1016
Observed Flight Rules
May-22 @ 17:20 UTC
(31 minutes ago)
VFR
Wind Visibility
70° at 10 knots 10,000+ meters
Clouds
  • Clear skies
Temperature Dewpoint
18°C / 64°F 13°C / 55°F
Humidity Altimeter Pressure
73% 30" Hg 1016 hPa